sensor_id;sensor_type;location;lat;lon;timestamp;P1;durP1;ratioP1;P2;durP2;ratioP2
422;SDS011;198;48.752;9.180;2022-08-11T00:02:49;5.10;;;1.97;;
422;SDS011;198;48.752;9.180;2022-08-11T00:05:17;3.70;;;1.60;;
422;SDS011;198;48.752;9.180;2022-08-11T00:07:45;2.20;;;2.03;;
422;SDS011;198;48.752;9.180;2022-08-11T00:10:17;2.40;;;2.20;;
422;SDS011;198;48.752;9.180;2022-08-11T00:12:50;2.30;;;2.07;;
422;SDS011;198;48.752;9.180;2022-08-11T00:15:21;4.13;;;2.00;;
422;SDS011;198;48.752;9.180;2022-08-11T00:17:48;3.37;;;2.20;;
422;SDS011;198;48.752;9.180;2022-08-11T00:20:21;3.80;;;2.20;;
422;SDS011;198;48.752;9.180;2022-08-11T00:22:52;5.60;;;2.00;;
422;SDS011;198;48.752;9.180;2022-08-11T00:25:39;2.07;;;1.90;;
422;SDS011;198;48.752;9.180;2022-08-11T00:28:23;8.30;;;2.40;;
422;SDS011;198;48.752;9.180;2022-08-11T00:30:54;4.07;;;1.60;;
422;SDS011;198;48.752;9.180;2022-08-11T00:33:21;1.80;;;1.70;;
422;SDS011;198;48.752;9.180;2022-08-11T00:35:50;3.27;;;1.93;;
422;SDS011;198;48.752;9.180;2022-08-11T00:38:22;3.00;;;2.07;;
422;SDS011;198;48.752;9.180;2022-08-11T00:40:58;2.50;;;1.90;;
422;SDS011;198;48.752;9.180;2022-08-11T00:46:15;2.80;;;2.10;;
422;SDS011;198;48.752;9.180;2022-08-11T00:49:10;2.90;;;2.27;;
422;SDS011;198;48.752;9.180;2022-08-11T01:00:14;3.47;;;2.50;;
422;SDS011;198;48.752;9.180;2022-08-11T01:05:33;4.27;;;2.40;;
422;SDS011;198;48.752;9.180;2022-08-11T01:22:36;4.13;;;2.70;;
422;SDS011;198;48.752;9.180;2022-08-11T01:28:56;2.70;;;2.30;;
422;SDS011;198;48.752;9.180;2022-08-11T01:34:41;5.40;;;2.63;;
422;SDS011;198;48.752;9.180;2022-08-11T01:37:39;2.33;;;2.13;;
422;SDS011;198;48.752;9.180;2022-08-11T01:42:57;5.67;;;2.47;;
422;SDS011;198;48.752;9.180;2022-08-11T01:45:58;3.73;;;2.33;;
422;SDS011;198;48.752;9.180;2022-08-11T01:48:40;3.87;;;2.90;;
422;SDS011;198;48.752;9.180;2022-08-11T01:54:23;2.60;;;2.40;;
422;SDS011;198;48.752;9.180;2022-08-11T01:59:50;2.80;;;2.30;;
422;SDS011;198;48.752;9.180;2022-08-11T02:02:57;2.43;;;2.30;;
422;SDS011;198;48.752;9.180;2022-08-11T02:05:35;6.50;;;2.23;;
422;SDS011;198;48.752;9.180;2022-08-11T02:10:56;2.50;;;2.30;;
422;SDS011;198;48.752;9.180;2022-08-11T02:13:49;3.70;;;2.43;;
422;SDS011;198;48.752;9.180;2022-08-11T02:22:00;4.47;;;2.67;;
422;SDS011;198;48.752;9.180;2022-08-11T02:25:34;4.43;;;2.20;;
422;SDS011;198;48.752;9.180;2022-08-11T02:27:58;3.83;;;2.50;;
422;SDS011;198;48.752;9.180;2022-08-11T02:30:48;4.73;;;2.33;;
422;SDS011;198;48.752;9.180;2022-08-11T02:33:44;3.97;;;2.10;;
422;SDS011;198;48.752;9.180;2022-08-11T02:36:16;5.03;;;2.97;;
422;SDS011;198;48.752;9.180;2022-08-11T02:50:04;2.63;;;2.50;;
422;SDS011;198;48.752;9.180;2022-08-11T02:55:28;3.40;;;2.03;;
422;SDS011;198;48.752;9.180;2022-08-11T02:58:16;5.20;;;2.47;;
422;SDS011;198;48.752;9.180;2022-08-11T03:00:49;3.00;;;2.20;;
422;SDS011;198;48.752;9.180;2022-08-11T03:03:30;3.53;;;2.40;;
422;SDS011;198;48.752;9.180;2022-08-11T03:09:09;4.67;;;3.07;;
422;SDS011;198;48.752;9.180;2022-08-11T03:14:40;3.70;;;2.80;;
422;SDS011;198;48.752;9.180;2022-08-11T03:17:51;4.20;;;3.07;;
422;SDS011;198;48.752;9.180;2022-08-11T03:20:41;4.27;;;2.80;;
422;SDS011;198;48.752;9.180;2022-08-11T03:23:24;2.50;;;2.30;;
422;SDS011;198;48.752;9.180;2022-08-11T03:25:59;7.77;;;2.40;;
422;SDS011;198;48.752;9.180;2022-08-11T03:28:33;3.03;;;2.50;;
422;SDS011;198;48.752;9.180;2022-08-11T03:33:50;4.43;;;2.80;;
422;SDS011;198;48.752;9.180;2022-08-11T03:36:50;9.73;;;3.10;;
422;SDS011;198;48.752;9.180;2022-08-11T03:42:49;2.80;;;2.40;;
422;SDS011;198;48.752;9.180;2022-08-11T03:45:35;7.60;;;2.30;;
422;SDS011;198;48.752;9.180;2022-08-11T03:59:21;4.33;;;2.40;;
422;SDS011;198;48.752;9.180;2022-08-11T04:10:51;3.60;;;2.70;;
422;SDS011;198;48.752;9.180;2022-08-11T04:16:46;4.87;;;2.97;;
422;SDS011;198;48.752;9.180;2022-08-11T04:24:53;2.50;;;2.30;;
422;SDS011;198;48.752;9.180;2022-08-11T04:27:38;9.23;;;3.40;;
422;SDS011;198;48.752;9.180;2022-08-11T04:30:27;7.47;;;3.23;;
422;SDS011;198;48.752;9.180;2022-08-11T04:36:33;7.07;;;2.80;;
422;SDS011;198;48.752;9.180;2022-08-11T04:42:55;3.87;;;2.90;;
422;SDS011;198;48.752;9.180;2022-08-11T04:48:56;4.93;;;3.13;;
422;SDS011;198;48.752;9.180;2022-08-11T04:55:14;9.20;;;2.83;;
422;SDS011;198;48.752;9.180;2022-08-11T05:04:49;9.90;;;3.70;;
422;SDS011;198;48.752;9.180;2022-08-11T05:10:55;10.27;;;3.60;;
422;SDS011;198;48.752;9.180;2022-08-11T05:16:28;3.37;;;2.60;;
422;SDS011;198;48.752;9.180;2022-08-11T05:19:16;5.20;;;3.37;;
422;SDS011;198;48.752;9.180;2022-08-11T05:22:04;3.70;;;2.90;;
422;SDS011;198;48.752;9.180;2022-08-11T05:25:05;7.13;;;3.30;;
422;SDS011;198;48.752;9.180;2022-08-11T05:27:59;11.13;;;3.70;;
422;SDS011;198;48.752;9.180;2022-08-11T05:30:49;7.33;;;2.93;;
422;SDS011;198;48.752;9.180;2022-08-11T05:33:45;11.87;;;3.57;;
422;SDS011;198;48.752;9.180;2022-08-11T05:36:51;7.40;;;2.90;;
422;SDS011;198;48.752;9.180;2022-08-11T05:39:23;4.30;;;2.93;;
422;SDS011;198;48.752;9.180;2022-08-11T05:42:11;7.50;;;2.80;;
422;SDS011;198;48.752;9.180;2022-08-11T05:44:58;6.93;;;2.90;;
422;SDS011;198;48.752;9.180;2022-08-11T05:47:48;11.33;;;3.50;;
422;SDS011;198;48.752;9.180;2022-08-11T05:50:33;7.50;;;3.37;;
422;SDS011;198;48.752;9.180;2022-08-11T05:53:17;6.30;;;2.80;;
422;SDS011;198;48.752;9.180;2022-08-11T05:56:06;10.33;;;2.80;;
422;SDS011;198;48.752;9.180;2022-08-11T05:58:44;6.47;;;2.90;;
422;SDS011;198;48.752;9.180;2022-08-11T06:01:19;3.80;;;3.20;;
422;SDS011;198;48.752;9.180;2022-08-11T06:03:56;7.73;;;3.57;;
422;SDS011;198;48.752;9.180;2022-08-11T06:06:48;3.10;;;2.70;;
422;SDS011;198;48.752;9.180;2022-08-11T06:09:22;6.93;;;3.77;;
422;SDS011;198;48.752;9.180;2022-08-11T06:12:00;10.10;;;3.13;;
422;SDS011;198;48.752;9.180;2022-08-11T06:14:28;4.30;;;2.80;;
422;SDS011;198;48.752;9.180;2022-08-11T06:16:56;5.70;;;3.57;;
422;SDS011;198;48.752;9.180;2022-08-11T06:19:29;4.03;;;3.27;;
422;SDS011;198;48.752;9.180;2022-08-11T06:22:07;5.20;;;3.00;;
422;SDS011;198;48.752;9.180;2022-08-11T06:24:37;6.53;;;3.23;;
422;SDS011;198;48.752;9.180;2022-08-11T06:27:18;6.93;;;3.60;;
422;SDS011;198;48.752;9.180;2022-08-11T06:29:45;5.13;;;2.80;;
422;SDS011;198;48.752;9.180;2022-08-11T06:32:14;6.47;;;2.97;;
422;SDS011;198;48.752;9.180;2022-08-11T06:37:43;5.43;;;3.17;;
422;SDS011;198;48.752;9.180;2022-08-11T06:43:30;8.20;;;3.70;;
422;SDS011;198;48.752;9.180;2022-08-11T06:46:11;3.90;;;2.93;;
422;SDS011;198;48.752;9.180;2022-08-11T06:48:41;9.33;;;3.80;;
422;SDS011;198;48.752;9.180;2022-08-11T06:51:08;8.87;;;2.97;;
422;SDS011;198;48.752;9.180;2022-08-11T06:53:41;7.30;;;4.00;;
422;SDS011;198;48.752;9.180;2022-08-11T06:56:27;4.17;;;3.07;;
422;SDS011;198;48.752;9.180;2022-08-11T06:59:14;5.50;;;2.70;;
422;SDS011;198;48.752;9.180;2022-08-11T07:02:03;4.40;;;3.20;;
422;SDS011;198;48.752;9.180;2022-08-11T07:04:47;4.20;;;2.80;;
422;SDS011;198;48.752;9.180;2022-08-11T07:13:37;5.90;;;3.20;;
422;SDS011;198;48.752;9.180;2022-08-11T07:16:27;4.40;;;3.13;;
422;SDS011;198;48.752;9.180;2022-08-11T07:19:02;5.00;;;3.20;;
422;SDS011;198;48.752;9.180;2022-08-11T07:21:48;9.67;;;3.13;;
422;SDS011;198;48.752;9.180;2022-08-11T07:25:07;4.30;;;2.70;;
422;SDS011;198;48.752;9.180;2022-08-11T07:27:46;7.73;;;3.37;;
422;SDS011;198;48.752;9.180;2022-08-11T07:30:39;9.60;;;4.20;;
422;SDS011;198;48.752;9.180;2022-08-11T07:33:06;5.50;;;3.77;;
422;SDS011;198;48.752;9.180;2022-08-11T07:35:45;5.20;;;3.50;;
422;SDS011;198;48.752;9.180;2022-08-11T07:38:39;5.00;;;3.17;;
422;SDS011;198;48.752;9.180;2022-08-11T07:41:12;8.83;;;2.97;;
422;SDS011;198;48.752;9.180;2022-08-11T07:43:39;10.23;;;3.00;;
422;SDS011;198;48.752;9.180;2022-08-11T07:46:06;5.13;;;3.20;;
422;SDS011;198;48.752;9.180;2022-08-11T07:48:52;5.37;;;3.10;;
422;SDS011;198;48.752;9.180;2022-08-11T07:51:37;3.97;;;3.00;;
422;SDS011;198;48.752;9.180;2022-08-11T07:54:24;30.87;;;3.90;;
422;SDS011;198;48.752;9.180;2022-08-11T07:56:50;7.13;;;3.37;;
422;SDS011;198;48.752;9.180;2022-08-11T07:59:16;6.67;;;3.20;;
422;SDS011;198;48.752;9.180;2022-08-11T08:02:02;6.30;;;3.03;;
422;SDS011;198;48.752;9.180;2022-08-11T08:04:46;3.50;;;2.93;;
422;SDS011;198;48.752;9.180;2022-08-11T08:07:31;5.30;;;3.53;;
422;SDS011;198;48.752;9.180;2022-08-11T08:10:16;5.83;;;3.37;;
422;SDS011;198;48.752;9.180;2022-08-11T08:13:02;7.40;;;3.00;;
422;SDS011;198;48.752;9.180;2022-08-11T08:15:47;12.70;;;3.50;;
422;SDS011;198;48.752;9.180;2022-08-11T08:18:35;5.23;;;3.00;;
422;SDS011;198;48.752;9.180;2022-08-11T08:21:02;5.20;;;2.83;;
422;SDS011;198;48.752;9.180;2022-08-11T08:23:39;7.40;;;3.47;;
422;SDS011;198;48.752;9.180;2022-08-11T08:26:12;5.70;;;2.93;;
422;SDS011;198;48.752;9.180;2022-08-11T08:29:01;4.30;;;2.77;;
422;SDS011;198;48.752;9.180;2022-08-11T08:31:48;7.40;;;2.87;;
422;SDS011;198;48.752;9.180;2022-08-11T08:34:15;4.20;;;2.40;;
422;SDS011;198;48.752;9.180;2022-08-11T08:36:47;3.37;;;2.87;;
422;SDS011;198;48.752;9.180;2022-08-11T08:39:14;5.33;;;3.00;;
422;SDS011;198;48.752;9.180;2022-08-11T08:41:44;6.67;;;3.20;;
422;SDS011;198;48.752;9.180;2022-08-11T08:44:14;4.53;;;2.57;;
422;SDS011;198;48.752;9.180;2022-08-11T08:46:43;2.33;;;2.10;;
422;SDS011;198;48.752;9.180;2022-08-11T08:49:14;3.10;;;2.27;;
422;SDS011;198;48.752;9.180;2022-08-11T08:51:42;3.93;;;2.73;;
422;SDS011;198;48.752;9.180;2022-08-11T08:54:11;2.90;;;2.50;;
422;SDS011;198;48.752;9.180;2022-08-11T08:56:43;3.23;;;2.53;;
422;SDS011;198;48.752;9.180;2022-08-11T08:59:10;3.23;;;2.50;;
422;SDS011;198;48.752;9.180;2022-08-11T09:01:42;3.43;;;2.50;;
422;SDS011;198;48.752;9.180;2022-08-11T09:04:12;6.77;;;2.77;;
422;SDS011;198;48.752;9.180;2022-08-11T09:06:39;5.87;;;2.60;;
422;SDS011;198;48.752;9.180;2022-08-11T09:09:08;3.43;;;2.13;;
422;SDS011;198;48.752;9.180;2022-08-11T09:11:38;5.43;;;2.47;;
422;SDS011;198;48.752;9.180;2022-08-11T09:14:15;2.30;;;2.10;;
422;SDS011;198;48.752;9.180;2022-08-11T09:16:42;4.53;;;2.20;;
422;SDS011;198;48.752;9.180;2022-08-11T09:19:09;7.63;;;2.60;;
422;SDS011;198;48.752;9.180;2022-08-11T09:21:40;8.23;;;2.43;;
422;SDS011;198;48.752;9.180;2022-08-11T09:24:07;4.57;;;2.47;;
422;SDS011;198;48.752;9.180;2022-08-11T09:26:51;2.30;;;1.80;;
422;SDS011;198;48.752;9.180;2022-08-11T09:29:23;4.13;;;2.50;;
422;SDS011;198;48.752;9.180;2022-08-11T09:31:52;3.00;;;2.40;;
422;SDS011;198;48.752;9.180;2022-08-11T09:34:19;3.90;;;2.23;;
422;SDS011;198;48.752;9.180;2022-08-11T09:36:46;3.77;;;2.90;;
422;SDS011;198;48.752;9.180;2022-08-11T09:39:31;2.70;;;2.50;;
422;SDS011;198;48.752;9.180;2022-08-11T09:42:20;3.00;;;2.00;;
422;SDS011;198;48.752;9.180;2022-08-11T09:44:47;4.90;;;2.20;;
422;SDS011;198;48.752;9.180;2022-08-11T09:47:31;9.47;;;2.03;;
422;SDS011;198;48.752;9.180;2022-08-11T09:50:00;2.47;;;2.27;;
422;SDS011;198;48.752;9.180;2022-08-11T09:52:27;2.67;;;2.30;;
422;SDS011;198;48.752;9.180;2022-08-11T09:54:56;1.80;;;1.60;;
422;SDS011;198;48.752;9.180;2022-08-11T09:57:21;5.97;;;2.17;;
422;SDS011;198;48.752;9.180;2022-08-11T10:00:08;4.40;;;2.07;;
422;SDS011;198;48.752;9.180;2022-08-11T10:02:45;2.50;;;1.43;;
422;SDS011;198;48.752;9.180;2022-08-11T10:05:14;1.40;;;1.30;;
422;SDS011;198;48.752;9.180;2022-08-11T10:08:01;2.10;;;1.63;;
422;SDS011;198;48.752;9.180;2022-08-11T10:10:28;3.53;;;2.33;;
422;SDS011;198;48.752;9.180;2022-08-11T10:13:00;7.60;;;2.70;;
422;SDS011;198;48.752;9.180;2022-08-11T10:15:29;3.30;;;1.53;;
422;SDS011;198;48.752;9.180;2022-08-11T10:18:09;4.30;;;1.80;;
422;SDS011;198;48.752;9.180;2022-08-11T10:21:06;2.23;;;1.67;;
422;SDS011;198;48.752;9.180;2022-08-11T10:23:35;3.15;;;1.48;;
422;SDS011;198;48.752;9.180;2022-08-11T10:26:28;2.83;;;2.05;;
422;SDS011;198;48.752;9.180;2022-08-11T10:29:14;5.75;;;1.40;;
422;SDS011;198;48.752;9.180;2022-08-11T10:31:59;1.85;;;1.75;;
422;SDS011;198;48.752;9.180;2022-08-11T10:34:44;7.30;;;1.80;;
422;SDS011;198;48.752;9.180;2022-08-11T10:37:11;6.50;;;1.75;;
422;SDS011;198;48.752;9.180;2022-08-11T10:39:38;1.50;;;1.40;;
422;SDS011;198;48.752;9.180;2022-08-11T10:42:04;3.60;;;1.38;;
422;SDS011;198;48.752;9.180;2022-08-11T10:44:51;5.30;;;2.03;;
422;SDS011;198;48.752;9.180;2022-08-11T10:47:18;1.83;;;1.73;;
422;SDS011;198;48.752;9.180;2022-08-11T10:50:18;5.38;;;1.80;;
422;SDS011;198;48.752;9.180;2022-08-11T10:53:02;1.52;;;1.42;;
422;SDS011;198;48.752;9.180;2022-08-11T10:55:46;2.15;;;1.27;;
422;SDS011;198;48.752;9.180;2022-08-11T10:58:31;2.50;;;1.25;;
422;SDS011;198;48.752;9.180;2022-08-11T11:01:26;1.58;;;1.52;;
422;SDS011;198;48.752;9.180;2022-08-11T11:03:57;1.67;;;1.30;;
422;SDS011;198;48.752;9.180;2022-08-11T11:09:15;4.78;;;1.50;;
422;SDS011;198;48.752;9.180;2022-08-11T11:11:48;5.13;;;1.52;;
422;SDS011;198;48.752;9.180;2022-08-11T11:14:35;1.33;;;1.23;;
422;SDS011;198;48.752;9.180;2022-08-11T11:17:27;2.45;;;1.48;;
422;SDS011;198;48.752;9.180;2022-08-11T11:20:21;2.13;;;1.42;;
422;SDS011;198;48.752;9.180;2022-08-11T11:22:50;1.25;;;1.10;;
422;SDS011;198;48.752;9.180;2022-08-11T11:25:24;5.05;;;1.48;;
422;SDS011;198;48.752;9.180;2022-08-11T11:28:14;1.55;;;1.38;;
422;SDS011;198;48.752;9.180;2022-08-11T11:39:11;1.63;;;1.58;;
422;SDS011;198;48.752;9.180;2022-08-11T11:41:37;1.70;;;1.60;;
422;SDS011;198;48.752;9.180;2022-08-11T11:44:04;1.77;;;1.40;;
422;SDS011;198;48.752;9.180;2022-08-11T11:46:30;8.10;;;1.40;;
422;SDS011;198;48.752;9.180;2022-08-11T11:48:57;1.60;;;1.42;;
422;SDS011;198;48.752;9.180;2022-08-11T11:51:30;1.40;;;1.30;;
422;SDS011;198;48.752;9.180;2022-08-11T11:53:57;3.92;;;1.35;;
422;SDS011;198;48.752;9.180;2022-08-11T11:56:23;1.15;;;1.05;;
422;SDS011;198;48.752;9.180;2022-08-11T11:58:50;1.23;;;1.13;;
422;SDS011;198;48.752;9.180;2022-08-11T12:01:36;1.52;;;1.17;;
422;SDS011;198;48.752;9.180;2022-08-11T12:04:02;1.50;;;1.33;;
422;SDS011;198;48.752;9.180;2022-08-11T12:06:31;3.22;;;1.00;;
422;SDS011;198;48.752;9.180;2022-08-11T12:08:57;1.92;;;1.23;;
422;SDS011;198;48.752;9.180;2022-08-11T12:11:24;1.60;;;1.20;;
422;SDS011;198;48.752;9.180;2022-08-11T12:14:10;1.52;;;1.20;;
422;SDS011;198;48.752;9.180;2022-08-11T12:16:39;1.95;;;1.67;;
422;SDS011;198;48.752;9.180;2022-08-11T12:19:13;2.95;;;1.30;;
422;SDS011;198;48.752;9.180;2022-08-11T12:21:41;1.10;;;1.00;;
422;SDS011;198;48.752;9.180;2022-08-11T12:24:28;2.92;;;1.13;;
422;SDS011;198;48.752;9.180;2022-08-11T12:27:13;1.95;;;1.17;;
422;SDS011;198;48.752;9.180;2022-08-11T12:29:56;2.72;;;1.08;;
422;SDS011;198;48.752;9.180;2022-08-11T12:32:30;1.35;;;1.25;;
422;SDS011;198;48.752;9.180;2022-08-11T12:34:58;1.20;;;1.10;;
422;SDS011;198;48.752;9.180;2022-08-11T12:37:32;4.55;;;1.50;;
422;SDS011;198;48.752;9.180;2022-08-11T12:40:02;2.88;;;1.98;;
422;SDS011;198;48.752;9.180;2022-08-11T12:42:49;1.52;;;1.40;;
422;SDS011;198;48.752;9.180;2022-08-11T12:45:35;1.33;;;1.23;;
422;SDS011;198;48.752;9.180;2022-08-11T12:48:06;4.18;;;1.50;;
422;SDS011;198;48.752;9.180;2022-08-11T12:50:56;1.95;;;1.58;;
422;SDS011;198;48.752;9.180;2022-08-11T12:53:51;2.60;;;1.70;;
422;SDS011;198;48.752;9.180;2022-08-11T12:56:21;1.70;;;1.60;;
422;SDS011;198;48.752;9.180;2022-08-11T12:59:06;3.03;;;1.80;;
422;SDS011;198;48.752;9.180;2022-08-11T13:01:52;2.55;;;1.88;;
422;SDS011;198;48.752;9.180;2022-08-11T13:04:37;2.10;;;1.52;;
422;SDS011;198;48.752;9.180;2022-08-11T13:07:24;1.80;;;1.13;;
422;SDS011;198;48.752;9.180;2022-08-11T13:09:53;1.67;;;1.58;;
422;SDS011;198;48.752;9.180;2022-08-11T13:12:20;1.75;;;1.65;;
422;SDS011;198;48.752;9.180;2022-08-11T13:15:06;1.98;;;1.60;;
422;SDS011;198;48.752;9.180;2022-08-11T13:17:35;3.15;;;1.88;;
422;SDS011;198;48.752;9.180;2022-08-11T13:20:02;8.48;;;1.98;;
422;SDS011;198;48.752;9.180;2022-08-11T13:22:30;1.60;;;1.50;;
422;SDS011;198;48.752;9.180;2022-08-11T13:24:55;2.58;;;1.60;;
422;SDS011;198;48.752;9.180;2022-08-11T13:27:22;1.45;;;1.35;;
422;SDS011;198;48.752;9.180;2022-08-11T13:29:48;1.60;;;1.50;;
422;SDS011;198;48.752;9.180;2022-08-11T13:32:17;1.65;;;1.55;;
422;SDS011;198;48.752;9.180;2022-08-11T13:34:45;1.50;;;1.40;;
422;SDS011;198;48.752;9.180;2022-08-11T13:37:12;2.40;;;1.45;;
422;SDS011;198;48.752;9.180;2022-08-11T13:39:39;1.67;;;1.58;;
422;SDS011;198;48.752;9.180;2022-08-11T13:42:11;7.03;;;1.70;;
422;SDS011;198;48.752;9.180;2022-08-11T13:44:39;1.60;;;1.50;;
422;SDS011;198;48.752;9.180;2022-08-11T13:47:07;1.48;;;1.38;;
422;SDS011;198;48.752;9.180;2022-08-11T13:49:36;4.97;;;1.50;;
422;SDS011;198;48.752;9.180;2022-08-11T13:52:03;3.88;;;1.55;;
422;SDS011;198;48.752;9.180;2022-08-11T13:54:31;2.60;;;1.60;;
422;SDS011;198;48.752;9.180;2022-08-11T13:57:01;1.73;;;1.63;;
422;SDS011;198;48.752;9.180;2022-08-11T13:59:32;2.28;;;1.42;;
422;SDS011;198;48.752;9.180;2022-08-11T14:01:59;2.17;;;1.55;;
422;SDS011;198;48.752;9.180;2022-08-11T14:07:02;1.98;;;1.88;;
422;SDS011;198;48.752;9.180;2022-08-11T14:09:32;1.80;;;1.70;;
422;SDS011;198;48.752;9.180;2022-08-11T14:12:01;1.45;;;1.35;;
422;SDS011;198;48.752;9.180;2022-08-11T14:14:55;1.50;;;1.40;;
422;SDS011;198;48.752;9.180;2022-08-11T14:17:28;1.95;;;1.40;;
422;SDS011;198;48.752;9.180;2022-08-11T14:19:57;1.85;;;1.75;;
422;SDS011;198;48.752;9.180;2022-08-11T14:22:28;1.65;;;1.55;;
422;SDS011;198;48.752;9.180;2022-08-11T14:24:54;3.35;;;1.52;;
422;SDS011;198;48.752;9.180;2022-08-11T14:27:22;1.70;;;1.52;;
422;SDS011;198;48.752;9.180;2022-08-11T14:29:50;2.25;;;1.40;;
422;SDS011;198;48.752;9.180;2022-08-11T14:32:18;4.00;;;1.45;;
422;SDS011;198;48.752;9.180;2022-08-11T14:34:46;2.58;;;1.63;;
422;SDS011;198;48.752;9.180;2022-08-11T14:37:13;1.65;;;1.55;;
422;SDS011;198;48.752;9.180;2022-08-11T14:39:43;1.60;;;1.50;;
422;SDS011;198;48.752;9.180;2022-08-11T14:42:15;1.55;;;1.45;;
422;SDS011;198;48.752;9.180;2022-08-11T14:45:02;1.98;;;1.58;;
422;SDS011;198;48.752;9.180;2022-08-11T14:47:52;1.63;;;1.55;;
422;SDS011;198;48.752;9.180;2022-08-11T14:50:21;1.92;;;1.90;;
422;SDS011;198;48.752;9.180;2022-08-11T14:52:49;1.30;;;1.20;;
422;SDS011;198;48.752;9.180;2022-08-11T14:55:36;1.67;;;1.27;;
422;SDS011;198;48.752;9.180;2022-08-11T14:58:24;1.80;;;1.70;;
422;SDS011;198;48.752;9.180;2022-08-11T15:00:52;6.60;;;1.88;;
422;SDS011;198;48.752;9.180;2022-08-11T15:03:21;2.08;;;1.70;;
422;SDS011;198;48.752;9.180;2022-08-11T15:05:50;3.83;;;1.48;;
422;SDS011;198;48.752;9.180;2022-08-11T15:08:18;1.50;;;1.40;;
422;SDS011;198;48.752;9.180;2022-08-11T15:10:45;5.65;;;1.83;;
422;SDS011;198;48.752;9.180;2022-08-11T15:13:16;1.70;;;1.42;;
422;SDS011;198;48.752;9.180;2022-08-11T15:15:43;2.28;;;1.77;;
422;SDS011;198;48.752;9.180;2022-08-11T15:18:28;1.60;;;1.50;;
422;SDS011;198;48.752;9.180;2022-08-11T15:20:55;1.65;;;1.60;;
422;SDS011;198;48.752;9.180;2022-08-11T15:23:39;3.53;;;1.52;;
422;SDS011;198;48.752;9.180;2022-08-11T15:26:31;1.65;;;1.58;;
422;SDS011;198;48.752;9.180;2022-08-11T15:29:22;1.48;;;1.40;;
422;SDS011;198;48.752;9.180;2022-08-11T15:32:11;1.42;;;1.35;;
422;SDS011;198;48.752;9.180;2022-08-11T15:34:48;1.92;;;1.60;;
422;SDS011;198;48.752;9.180;2022-08-11T15:37:37;2.55;;;1.48;;
422;SDS011;198;48.752;9.180;2022-08-11T15:40:12;1.50;;;1.42;;
422;SDS011;198;48.752;9.180;2022-08-11T15:43:15;7.32;;;1.67;;
422;SDS011;198;48.752;9.180;2022-08-11T15:46:08;2.67;;;1.60;;
422;SDS011;198;48.752;9.180;2022-08-11T15:48:52;1.90;;;1.80;;
422;SDS011;198;48.752;9.180;2022-08-11T15:53:57;1.45;;;1.35;;
422;SDS011;198;48.752;9.180;2022-08-11T15:56:28;1.63;;;1.52;;
422;SDS011;198;48.752;9.180;2022-08-11T15:58:56;1.88;;;1.77;;
422;SDS011;198;48.752;9.180;2022-08-11T16:01:44;1.90;;;1.70;;
422;SDS011;198;48.752;9.180;2022-08-11T16:04:29;1.80;;;1.70;;
422;SDS011;198;48.752;9.180;2022-08-11T16:09:32;1.80;;;1.50;;
422;SDS011;198;48.752;9.180;2022-08-11T16:15:27;1.70;;;1.60;;
422;SDS011;198;48.752;9.180;2022-08-11T16:18:14;1.70;;;1.60;;
422;SDS011;198;48.752;9.180;2022-08-11T16:20:43;1.80;;;1.63;;
422;SDS011;198;48.752;9.180;2022-08-11T16:23:09;1.80;;;1.70;;
422;SDS011;198;48.752;9.180;2022-08-11T16:25:35;2.37;;;1.90;;
422;SDS011;198;48.752;9.180;2022-08-11T16:28:01;2.70;;;2.20;;
422;SDS011;198;48.752;9.180;2022-08-11T16:30:29;1.83;;;1.73;;
422;SDS011;198;48.752;9.180;2022-08-11T16:32:56;2.17;;;1.77;;
422;SDS011;198;48.752;9.180;2022-08-11T16:35:23;1.90;;;1.67;;
422;SDS011;198;48.752;9.180;2022-08-11T16:38:08;19.63;;;1.70;;
422;SDS011;198;48.752;9.180;2022-08-11T16:40:54;2.93;;;1.80;;
422;SDS011;198;48.752;9.180;2022-08-11T16:43:23;1.67;;;1.57;;
422;SDS011;198;48.752;9.180;2022-08-11T16:46:13;2.20;;;1.87;;
422;SDS011;198;48.752;9.180;2022-08-11T16:49:01;2.03;;;1.70;;
422;SDS011;198;48.752;9.180;2022-08-11T16:51:32;2.67;;;1.60;;
422;SDS011;198;48.752;9.180;2022-08-11T16:53:58;1.63;;;1.47;;
422;SDS011;198;48.752;9.180;2022-08-11T16:56:26;1.90;;;1.53;;
422;SDS011;198;48.752;9.180;2022-08-11T16:58:56;1.40;;;1.37;;
422;SDS011;198;48.752;9.180;2022-08-11T17:01:38;6.70;;;1.67;;
422;SDS011;198;48.752;9.180;2022-08-11T17:04:19;4.40;;;2.20;;
422;SDS011;198;48.752;9.180;2022-08-11T17:07:13;2.73;;;1.50;;
422;SDS011;198;48.752;9.180;2022-08-11T17:10:03;4.40;;;2.27;;
422;SDS011;198;48.752;9.180;2022-08-11T17:12:53;4.63;;;2.20;;
422;SDS011;198;48.752;9.180;2022-08-11T17:15:36;2.57;;;2.23;;
422;SDS011;198;48.752;9.180;2022-08-11T17:18:24;3.07;;;1.90;;
422;SDS011;198;48.752;9.180;2022-08-11T17:21:05;6.63;;;2.37;;
422;SDS011;198;48.752;9.180;2022-08-11T17:23:33;4.57;;;2.30;;
422;SDS011;198;48.752;9.180;2022-08-11T17:26:18;2.93;;;2.10;;
422;SDS011;198;48.752;9.180;2022-08-11T17:28:49;5.97;;;2.47;;
422;SDS011;198;48.752;9.180;2022-08-11T17:31:20;2.43;;;2.00;;
422;SDS011;198;48.752;9.180;2022-08-11T17:34:06;17.90;;;2.50;;
422;SDS011;198;48.752;9.180;2022-08-11T17:36:53;4.13;;;2.20;;
422;SDS011;198;48.752;9.180;2022-08-11T17:39:19;4.30;;;2.10;;
422;SDS011;198;48.752;9.180;2022-08-11T17:41:48;2.33;;;2.13;;
422;SDS011;198;48.752;9.180;2022-08-11T17:44:34;4.03;;;2.30;;
422;SDS011;198;48.752;9.180;2022-08-11T17:47:19;10.20;;;2.30;;
422;SDS011;198;48.752;9.180;2022-08-11T17:50:04;2.20;;;2.10;;
422;SDS011;198;48.752;9.180;2022-08-11T17:52:31;3.70;;;2.00;;
422;SDS011;198;48.752;9.180;2022-08-11T17:55:15;3.27;;;2.00;;
422;SDS011;198;48.752;9.180;2022-08-11T17:58:00;5.20;;;2.70;;
422;SDS011;198;48.752;9.180;2022-08-11T18:00:47;3.40;;;1.90;;
422;SDS011;198;48.752;9.180;2022-08-11T18:03:15;2.70;;;2.20;;
422;SDS011;198;48.752;9.180;2022-08-11T18:05:53;6.43;;;2.00;;
422;SDS011;198;48.752;9.180;2022-08-11T18:08:20;2.80;;;2.00;;
422;SDS011;198;48.752;9.180;2022-08-11T18:11:05;8.90;;;2.10;;
422;SDS011;198;48.752;9.180;2022-08-11T18:13:51;4.83;;;2.20;;
422;SDS011;198;48.752;9.180;2022-08-11T18:16:36;6.10;;;1.83;;
422;SDS011;198;48.752;9.180;2022-08-11T18:19:21;4.40;;;2.37;;
422;SDS011;198;48.752;9.180;2022-08-11T18:22:09;2.30;;;2.17;;
422;SDS011;198;48.752;9.180;2022-08-11T18:25:05;2.50;;;2.00;;
422;SDS011;198;48.752;9.180;2022-08-11T18:27:53;4.03;;;2.43;;
422;SDS011;198;48.752;9.180;2022-08-11T18:30:38;2.70;;;2.33;;
422;SDS011;198;48.752;9.180;2022-08-11T18:33:27;8.80;;;2.10;;
422;SDS011;198;48.752;9.180;2022-08-11T18:36:26;2.73;;;2.27;;
422;SDS011;198;48.752;9.180;2022-08-11T18:39:14;4.60;;;2.30;;
422;SDS011;198;48.752;9.180;2022-08-11T18:42:04;3.83;;;2.37;;
422;SDS011;198;48.752;9.180;2022-08-11T18:44:54;6.47;;;2.90;;
422;SDS011;198;48.752;9.180;2022-08-11T18:47:42;2.63;;;1.80;;
422;SDS011;198;48.752;9.180;2022-08-11T18:50:26;5.53;;;2.50;;
422;SDS011;198;48.752;9.180;2022-08-11T18:53:10;3.90;;;2.13;;
422;SDS011;198;48.752;9.180;2022-08-11T18:55:56;10.60;;;2.40;;
422;SDS011;198;48.752;9.180;2022-08-11T18:58:42;2.73;;;2.00;;
422;SDS011;198;48.752;9.180;2022-08-11T19:01:28;2.60;;;2.47;;
422;SDS011;198;48.752;9.180;2022-08-11T19:04:16;2.67;;;1.97;;
422;SDS011;198;48.752;9.180;2022-08-11T19:07:02;2.30;;;2.20;;
422;SDS011;198;48.752;9.180;2022-08-11T19:09:47;3.07;;;2.20;;
422;SDS011;198;48.752;9.180;2022-08-11T19:12:37;2.77;;;2.60;;
422;SDS011;198;48.752;9.180;2022-08-11T19:15:24;12.30;;;2.70;;
422;SDS011;198;48.752;9.180;2022-08-11T19:18:09;11.03;;;2.60;;
422;SDS011;198;48.752;9.180;2022-08-11T19:20:57;3.97;;;2.33;;
422;SDS011;198;48.752;9.180;2022-08-11T19:23:43;2.67;;;2.47;;
422;SDS011;198;48.752;9.180;2022-08-11T19:26:30;3.30;;;2.50;;
422;SDS011;198;48.752;9.180;2022-08-11T19:29:16;6.33;;;2.97;;
422;SDS011;198;48.752;9.180;2022-08-11T19:32:03;5.40;;;3.03;;
422;SDS011;198;48.752;9.180;2022-08-11T19:34:48;3.23;;;2.37;;
422;SDS011;198;48.752;9.180;2022-08-11T19:37:35;4.87;;;2.60;;
422;SDS011;198;48.752;9.180;2022-08-11T19:40:21;7.90;;;3.03;;
422;SDS011;198;48.752;9.180;2022-08-11T19:43:05;2.67;;;2.30;;
422;SDS011;198;48.752;9.180;2022-08-11T19:45:52;2.73;;;2.50;;